sensor_id;sensor_type;location;lat;lon;timestamp;pressure;altitude;pressure_sealevel;temperature
69545;BMP180;56766;52.260;20.746;2024-03-08T00:00:11;101289.60;;;-3.50
69545;BMP180;56766;52.260;20.746;2024-03-08T00:02:59;101282.00;;;-3.56
69545;BMP180;56766;52.260;20.746;2024-03-08T00:05:28;101284.00;;;-3.50
69545;BMP180;56766;52.260;20.746;2024-03-08T00:07:54;101284.20;;;-3.50
69545;BMP180;56766;52.260;20.746;2024-03-08T00:10:22;101286.40;;;-3.50
69545;BMP180;56766;52.260;20.746;2024-03-08T00:12:49;101276.40;;;-3.50
69545;BMP180;56766;52.260;20.746;2024-03-08T00:15:20;101279.80;;;-3.50
69545;BMP180;56766;52.260;20.746;2024-03-08T00:17:53;101276.60;;;-3.50
69545;BMP180;56766;52.260;20.746;2024-03-08T00:20:25;101280.20;;;-3.50
69545;BMP180;56766;52.260;20.746;2024-03-08T00:22:52;101273.00;;;-3.52
69545;BMP180;56766;52.260;20.746;2024-03-08T00:25:18;101272.60;;;-3.56
69545;BMP180;56766;52.260;20.746;2024-03-08T00:27:45;101281.60;;;-3.60
69545;BMP180;56766;52.260;20.746;2024-03-08T00:30:12;101275.20;;;-3.60
69545;BMP180;56766;52.260;20.746;2024-03-08T00:32:42;101271.80;;;-3.60
69545;BMP180;56766;52.260;20.746;2024-03-08T00:35:08;101275.40;;;-3.64
69545;BMP180;56766;52.260;20.746;2024-03-08T00:37:35;101272.60;;;-3.70
69545;BMP180;56766;52.260;20.746;2024-03-08T00:40:02;101269.00;;;-3.74
69545;BMP180;56766;52.260;20.746;2024-03-08T00:42:35;101276.60;;;-3.80
69545;BMP180;56766;52.260;20.746;2024-03-08T00:45:23;101268.20;;;-3.80
69545;BMP180;56766;52.260;20.746;2024-03-08T00:47:50;101272.80;;;-3.80
69545;BMP180;56766;52.260;20.746;2024-03-08T00:50:17;101271.00;;;-3.88
69545;BMP180;56766;52.260;20.746;2024-03-08T00:52:44;101270.60;;;-3.90
69545;BMP180;56766;52.260;20.746;2024-03-08T00:55:11;101269.20;;;-3.90
69545;BMP180;56766;52.260;20.746;2024-03-08T00:57:38;101272.20;;;-3.92
69545;BMP180;56766;52.260;20.746;2024-03-08T01:00:07;101267.80;;;-4.00
69545;BMP180;56766;52.260;20.746;2024-03-08T01:02:36;101265.00;;;-4.00
69545;BMP180;56766;52.260;20.746;2024-03-08T01:05:07;101267.20;;;-4.00
69545;BMP180;56766;52.260;20.746;2024-03-08T01:07:37;101263.00;;;-4.02
69545;BMP180;56766;52.260;20.746;2024-03-08T01:10:05;101260.80;;;-4.00
69545;BMP180;56766;52.260;20.746;2024-03-08T01:12:35;101255.00;;;-4.00
69545;BMP180;56766;52.260;20.746;2024-03-08T01:15:02;101255.60;;;-4.04
69545;BMP180;56766;52.260;20.746;2024-03-08T01:17:38;101255.40;;;-4.06
69545;BMP180;56766;52.260;20.746;2024-03-08T01:20:09;101261.00;;;-4.10
69545;BMP180;56766;52.260;20.746;2024-03-08T01:22:42;101258.80;;;-4.10
69545;BMP180;56766;52.260;20.746;2024-03-08T01:25:09;101257.00;;;-4.20
69545;BMP180;56766;52.260;20.746;2024-03-08T01:27:36;101249.20;;;-4.20
69545;BMP180;56766;52.260;20.746;2024-03-08T01:30:07;101247.60;;;-4.22
69545;BMP180;56766;52.260;20.746;2024-03-08T01:32:43;101246.00;;;-4.30
69545;BMP180;56766;52.260;20.746;2024-03-08T01:35:11;101244.00;;;-4.30
69545;BMP180;56766;52.260;20.746;2024-03-08T01:37:40;101247.40;;;-4.30
69545;BMP180;56766;52.260;20.746;2024-03-08T01:40:07;101243.60;;;-4.30
69545;BMP180;56766;52.260;20.746;2024-03-08T01:42:35;101244.00;;;-4.30
69545;BMP180;56766;52.260;20.746;2024-03-08T01:45:06;101245.00;;;-4.30
69545;BMP180;56766;52.260;20.746;2024-03-08T01:47:35;101245.20;;;-4.30
69545;BMP180;56766;52.260;20.746;2024-03-08T01:50:02;101244.00;;;-4.30
69545;BMP180;56766;52.260;20.746;2024-03-08T01:52:30;101246.40;;;-4.30
69545;BMP180;56766;52.260;20.746;2024-03-08T01:55:03;101243.80;;;-4.30
69545;BMP180;56766;52.260;20.746;2024-03-08T01:57:33;101241.60;;;-4.30
69545;BMP180;56766;52.260;20.746;2024-03-08T02:00:04;101236.80;;;-4.30
69545;BMP180;56766;52.260;20.746;2024-03-08T02:02:32;101238.80;;;-4.28
69545;BMP180;56766;52.260;20.746;2024-03-08T02:05:01;101239.00;;;-4.28
69545;BMP180;56766;52.260;20.746;2024-03-08T02:07:28;101234.00;;;-4.30
69545;BMP180;56766;52.260;20.746;2024-03-08T02:09:59;101233.40;;;-4.30
69545;BMP180;56766;52.260;20.746;2024-03-08T02:12:39;101225.80;;;-4.30
69545;BMP180;56766;52.260;20.746;2024-03-08T02:15:09;101218.40;;;-4.34
69545;BMP180;56766;52.260;20.746;2024-03-08T02:17:37;101227.60;;;-4.32
69545;BMP180;56766;52.260;20.746;2024-03-08T02:20:04;101217.80;;;-4.40
69545;BMP180;56766;52.260;20.746;2024-03-08T02:22:31;101218.00;;;-4.48
69545;BMP180;56766;52.260;20.746;2024-03-08T02:24:58;101221.40;;;-4.50
69545;BMP180;56766;52.260;20.746;2024-03-08T02:27:27;101215.80;;;-4.60
69545;BMP180;56766;52.260;20.746;2024-03-08T02:29:57;101218.60;;;-4.60
69545;BMP180;56766;52.260;20.746;2024-03-08T02:32:26;101217.20;;;-4.60
69545;BMP180;56766;52.260;20.746;2024-03-08T02:34:59;101217.60;;;-4.60
69545;BMP180;56766;52.260;20.746;2024-03-08T02:37:30;101217.20;;;-4.60
69545;BMP180;56766;52.260;20.746;2024-03-08T02:40:14;101214.40;;;-4.70
69545;BMP180;56766;52.260;20.746;2024-03-08T02:42:42;101212.40;;;-4.70
69545;BMP180;56766;52.260;20.746;2024-03-08T02:45:09;101213.40;;;-4.70
69545;BMP180;56766;52.260;20.746;2024-03-08T02:47:37;101216.00;;;-4.80
69545;BMP180;56766;52.260;20.746;2024-03-08T02:50:04;101212.00;;;-4.80
69545;BMP180;56766;52.260;20.746;2024-03-08T02:52:31;101212.40;;;-4.78
69545;BMP180;56766;52.260;20.746;2024-03-08T02:54:57;101210.60;;;-4.76
69545;BMP180;56766;52.260;20.746;2024-03-08T02:57:24;101206.80;;;-4.74
69545;BMP180;56766;52.260;20.746;2024-03-08T02:59:53;101205.60;;;-4.70
69545;BMP180;56766;52.260;20.746;2024-03-08T03:02:23;101201.00;;;-4.70
69545;BMP180;56766;52.260;20.746;2024-03-08T03:04:57;101198.80;;;-4.70
69545;BMP180;56766;52.260;20.746;2024-03-08T03:07:25;101207.40;;;-4.70
69545;BMP180;56766;52.260;20.746;2024-03-08T03:09:54;101208.80;;;-4.70
69545;BMP180;56766;52.260;20.746;2024-03-08T03:12:21;101206.60;;;-4.70
69545;BMP180;56766;52.260;20.746;2024-03-08T03:14:48;101207.80;;;-4.70
69545;BMP180;56766;52.260;20.746;2024-03-08T03:17:14;101210.40;;;-4.70
69545;BMP180;56766;52.260;20.746;2024-03-08T03:19:41;101208.00;;;-4.70
69545;BMP180;56766;52.260;20.746;2024-03-08T03:22:09;101212.40;;;-4.62
69545;BMP180;56766;52.260;20.746;2024-03-08T03:24:37;101207.20;;;-4.60
69545;BMP180;56766;52.260;20.746;2024-03-08T03:27:04;101207.00;;;-4.60
69545;BMP180;56766;52.260;20.746;2024-03-08T03:29:39;101210.20;;;-4.60
69545;BMP180;56766;52.260;20.746;2024-03-08T03:32:08;101205.20;;;-4.60
69545;BMP180;56766;52.260;20.746;2024-03-08T03:34:35;101201.80;;;-4.60
69545;BMP180;56766;52.260;20.746;2024-03-08T03:37:05;101204.80;;;-4.60
69545;BMP180;56766;52.260;20.746;2024-03-08T03:39:34;101203.40;;;-4.66
69545;BMP180;56766;52.260;20.746;2024-03-08T03:42:07;101200.20;;;-4.70
69545;BMP180;56766;52.260;20.746;2024-03-08T03:44:33;101196.60;;;-4.70
69545;BMP180;56766;52.260;20.746;2024-03-08T03:47:00;101196.80;;;-4.80
69545;BMP180;56766;52.260;20.746;2024-03-08T03:49:27;101197.20;;;-4.90
69545;BMP180;56766;52.260;20.746;2024-03-08T03:51:55;101194.40;;;-4.90
69545;BMP180;56766;52.260;20.746;2024-03-08T03:54:22;101187.20;;;-4.94
69545;BMP180;56766;52.260;20.746;2024-03-08T03:56:49;101191.80;;;-5.00
69545;BMP180;56766;52.260;20.746;2024-03-08T03:59:19;101183.00;;;-5.00
69545;BMP180;56766;52.260;20.746;2024-03-08T04:01:45;101180.20;;;-5.00
69545;BMP180;56766;52.260;20.746;2024-03-08T04:04:12;101185.40;;;-5.00
69545;BMP180;56766;52.260;20.746;2024-03-08T04:06:39;101177.00;;;-5.00
69545;BMP180;56766;52.260;20.746;2024-03-08T04:09:05;101181.20;;;-5.00
69545;BMP180;56766;52.260;20.746;2024-03-08T04:11:32;101182.60;;;-5.00
69545;BMP180;56766;52.260;20.746;2024-03-08T04:13:59;101186.20;;;-5.10
69545;BMP180;56766;52.260;20.746;2024-03-08T04:16:26;101176.40;;;-5.10
69545;BMP180;56766;52.260;20.746;2024-03-08T04:18:53;101178.20;;;-5.12
69545;BMP180;56766;52.260;20.746;2024-03-08T04:21:20;101179.40;;;-5.20
69545;BMP180;56766;52.260;20.746;2024-03-08T04:23:47;101181.60;;;-5.20
69545;BMP180;56766;52.260;20.746;2024-03-08T04:26:14;101177.80;;;-5.26
69545;BMP180;56766;52.260;20.746;2024-03-08T04:28:40;101178.60;;;-5.30
69545;BMP180;56766;52.260;20.746;2024-03-08T04:31:08;101181.60;;;-5.30
69545;BMP180;56766;52.260;20.746;2024-03-08T04:33:34;101182.80;;;-5.26
69545;BMP180;56766;52.260;20.746;2024-03-08T04:36:06;101178.80;;;-5.30
69545;BMP180;56766;52.260;20.746;2024-03-08T04:38:34;101176.40;;;-5.30
69545;BMP180;56766;52.260;20.746;2024-03-08T04:41:00;101176.00;;;-5.30
69545;BMP180;56766;52.260;20.746;2024-03-08T04:43:28;101176.40;;;-5.30
69545;BMP180;56766;52.260;20.746;2024-03-08T04:45:56;101173.20;;;-5.30
69545;BMP180;56766;52.260;20.746;2024-03-08T04:48:23;101170.60;;;-5.30
69545;BMP180;56766;52.260;20.746;2024-03-08T04:50:50;101172.80;;;-5.30
69545;BMP180;56766;52.260;20.746;2024-03-08T04:53:16;101173.60;;;-5.30
69545;BMP180;56766;52.260;20.746;2024-03-08T04:55:44;101171.00;;;-5.30
69545;BMP180;56766;52.260;20.746;2024-03-08T04:58:10;101168.00;;;-5.30
69545;BMP180;56766;52.260;20.746;2024-03-08T05:00:37;101170.40;;;-5.30
69545;BMP180;56766;52.260;20.746;2024-03-08T05:03:04;101175.40;;;-5.30
69545;BMP180;56766;52.260;20.746;2024-03-08T05:05:31;101180.00;;;-5.38
69545;BMP180;56766;52.260;20.746;2024-03-08T05:07:59;101176.00;;;-5.38
69545;BMP180;56766;52.260;20.746;2024-03-08T05:10:28;101176.40;;;-5.40
69545;BMP180;56766;52.260;20.746;2024-03-08T05:12:54;101173.20;;;-5.32
69545;BMP180;56766;52.260;20.746;2024-03-08T05:15:21;101174.40;;;-5.32
69545;BMP180;56766;52.260;20.746;2024-03-08T05:17:48;101178.00;;;-5.30
69545;BMP180;56766;52.260;20.746;2024-03-08T05:20:15;101178.60;;;-5.30
69545;BMP180;56766;52.260;20.746;2024-03-08T05:22:43;101175.80;;;-5.30
69545;BMP180;56766;52.260;20.746;2024-03-08T05:25:10;101176.40;;;-5.30
69545;BMP180;56766;52.260;20.746;2024-03-08T05:27:37;101176.40;;;-5.28
69545;BMP180;56766;52.260;20.746;2024-03-08T05:30:04;101173.80;;;-5.30
69545;BMP180;56766;52.260;20.746;2024-03-08T05:32:32;101181.40;;;-5.20
69545;BMP180;56766;52.260;20.746;2024-03-08T05:34:59;101174.40;;;-5.20
69545;BMP180;56766;52.260;20.746;2024-03-08T05:37:26;101177.00;;;-5.18
69545;BMP180;56766;52.260;20.746;2024-03-08T05:39:52;101174.60;;;-5.10
69545;BMP180;56766;52.260;20.746;2024-03-08T05:42:20;101173.40;;;-5.10
69545;BMP180;56766;52.260;20.746;2024-03-08T05:44:47;101174.40;;;-5.04
69545;BMP180;56766;52.260;20.746;2024-03-08T05:47:14;101174.60;;;-5.00
69545;BMP180;56766;52.260;20.746;2024-03-08T05:49:42;101179.20;;;-5.00
69545;BMP180;56766;52.260;20.746;2024-03-08T05:52:12;101175.80;;;-4.90
69545;BMP180;56766;52.260;20.746;2024-03-08T05:54:39;101177.60;;;-4.90
69545;BMP180;56766;52.260;20.746;2024-03-08T05:57:07;101174.00;;;-4.84
69545;BMP180;56766;52.260;20.746;2024-03-08T05:59:34;101173.20;;;-4.80
69545;BMP180;56766;52.260;20.746;2024-03-08T06:02:02;101179.20;;;-4.70
69545;BMP180;56766;52.260;20.746;2024-03-08T06:04:29;101173.00;;;-4.60
69545;BMP180;56766;52.260;20.746;2024-03-08T06:06:57;101176.40;;;-4.52
69545;BMP180;56766;52.260;20.746;2024-03-08T06:09:25;101181.00;;;-4.40
69545;BMP180;56766;52.260;20.746;2024-03-08T06:11:52;101173.40;;;-4.30
69545;BMP180;56766;52.260;20.746;2024-03-08T06:14:20;101178.60;;;-4.20
69545;BMP180;56766;52.260;20.746;2024-03-08T06:16:47;101181.80;;;-4.08
69545;BMP180;56766;52.260;20.746;2024-03-08T06:19:16;101180.40;;;-3.90
69545;BMP180;56766;52.260;20.746;2024-03-08T06:21:43;101178.20;;;-3.80
69545;BMP180;56766;52.260;20.746;2024-03-08T06:24:09;101179.60;;;-3.70
69545;BMP180;56766;52.260;20.746;2024-03-08T06:26:36;101175.80;;;-3.54
69545;BMP180;56766;52.260;20.746;2024-03-08T06:29:04;101178.20;;;-3.40
69545;BMP180;56766;52.260;20.746;2024-03-08T06:31:33;101177.20;;;-3.30
69545;BMP180;56766;52.260;20.746;2024-03-08T06:34:00;101180.00;;;-3.16
69545;BMP180;56766;52.260;20.746;2024-03-08T06:36:28;101184.00;;;-3.00
69545;BMP180;56766;52.260;20.746;2024-03-08T06:38:54;101181.60;;;-2.82
69545;BMP180;56766;52.260;20.746;2024-03-08T06:41:22;101179.00;;;-2.70
69545;BMP180;56766;52.260;20.746;2024-03-08T06:43:49;101179.40;;;-2.52
69545;BMP180;56766;52.260;20.746;2024-03-08T06:46:18;101183.60;;;-2.36
69545;BMP180;56766;52.260;20.746;2024-03-08T06:48:46;101183.60;;;-2.20
69545;BMP180;56766;52.260;20.746;2024-03-08T06:51:14;101189.80;;;-2.00
69545;BMP180;56766;52.260;20.746;2024-03-08T06:53:41;101186.80;;;-1.90
69545;BMP180;56766;52.260;20.746;2024-03-08T06:56:08;101185.80;;;-1.70
69545;BMP180;56766;52.260;20.746;2024-03-08T06:58:35;101190.60;;;-1.50
69545;BMP180;56766;52.260;20.746;2024-03-08T07:01:02;101189.80;;;-1.30
69545;BMP180;56766;52.260;20.746;2024-03-08T07:03:30;101187.80;;;-1.20
69545;BMP180;56766;52.260;20.746;2024-03-08T07:05:58;101186.00;;;-0.96
69545;BMP180;56766;52.260;20.746;2024-03-08T07:08:25;101189.80;;;-0.72
69545;BMP180;56766;52.260;20.746;2024-03-08T07:10:54;101187.80;;;-0.50
69545;BMP180;56766;52.260;20.746;2024-03-08T07:13:21;101183.80;;;-0.30
69545;BMP180;56766;52.260;20.746;2024-03-08T07:15:47;101179.00;;;-0.10
69545;BMP180;56766;52.260;20.746;2024-03-08T07:18:14;101188.40;;;0.10
69545;BMP180;56766;52.260;20.746;2024-03-08T07:20:41;101183.60;;;0.30
69545;BMP180;56766;52.260;20.746;2024-03-08T07:23:09;101180.20;;;0.54
69545;BMP180;56766;52.260;20.746;2024-03-08T07:25:37;101180.20;;;0.78
69545;BMP180;56766;52.260;20.746;2024-03-08T07:28:05;101181.60;;;0.98
69545;BMP180;56766;52.260;20.746;2024-03-08T07:30:33;101177.80;;;1.18
69545;BMP180;56766;52.260;20.746;2024-03-08T07:33:12;101182.80;;;1.34
69545;BMP180;56766;52.260;20.746;2024-03-08T07:35:39;101180.20;;;1.52
69545;BMP180;56766;52.260;20.746;2024-03-08T07:38:08;101173.20;;;1.74
69545;BMP180;56766;52.260;20.746;2024-03-08T07:40:41;101177.20;;;1.98
69545;BMP180;56766;52.260;20.746;2024-03-08T07:43:11;101180.60;;;2.14
69545;BMP180;56766;52.260;20.746;2024-03-08T07:45:38;101178.00;;;2.34
69545;BMP180;56766;52.260;20.746;2024-03-08T07:48:06;101179.20;;;2.50
69545;BMP180;56766;52.260;20.746;2024-03-08T07:50:40;101176.40;;;2.70
69545;BMP180;56766;52.260;20.746;2024-03-08T07:53:08;101178.80;;;2.88
69545;BMP180;56766;52.260;20.746;2024-03-08T07:55:36;101174.60;;;3.00
69545;BMP180;56766;52.260;20.746;2024-03-08T07:58:03;101172.80;;;3.20
69545;BMP180;56766;52.260;20.746;2024-03-08T08:00:30;101169.80;;;3.38
69545;BMP180;56766;52.260;20.746;2024-03-08T08:03:00;101167.60;;;3.50
69545;BMP180;56766;52.260;20.746;2024-03-08T08:05:28;101161.40;;;3.70
69545;BMP180;56766;52.260;20.746;2024-03-08T08:07:54;101167.20;;;3.86
69545;BMP180;56766;52.260;20.746;2024-03-08T08:10:21;101168.20;;;4.00
69545;BMP180;56766;52.260;20.746;2024-03-08T08:12:49;101166.20;;;4.20
69545;BMP180;56766;52.260;20.746;2024-03-08T08:15:15;101161.20;;;4.38
69545;BMP180;56766;52.260;20.746;2024-03-08T08:17:42;101155.80;;;4.50
69545;BMP180;56766;52.260;20.746;2024-03-08T08:20:11;101158.40;;;4.60
69545;BMP180;56766;52.260;20.746;2024-03-08T08:22:42;101160.40;;;4.80
69545;BMP180;56766;52.260;20.746;2024-03-08T08:25:11;101155.00;;;4.92
69545;BMP180;56766;52.260;20.746;2024-03-08T08:27:41;101151.00;;;5.08
69545;BMP180;56766;52.260;20.746;2024-03-08T08:30:12;101146.40;;;5.20
69545;BMP180;56766;52.260;20.746;2024-03-08T08:32:39;101149.20;;;5.30
69545;BMP180;56766;52.260;20.746;2024-03-08T08:35:06;101147.00;;;5.50
69545;BMP180;56766;52.260;20.746;2024-03-08T08:37:34;101140.00;;;5.60
69545;BMP180;56766;52.260;20.746;2024-03-08T08:40:04;101137.80;;;5.70
69545;BMP180;56766;52.260;20.746;2024-03-08T08:42:38;101133.80;;;5.90
69545;BMP180;56766;52.260;20.746;2024-03-08T08:45:06;101131.00;;;6.00
69545;BMP180;56766;52.260;20.746;2024-03-08T08:47:36;101129.40;;;6.14
69545;BMP180;56766;52.260;20.746;2024-03-08T08:50:04;101133.20;;;6.30
69545;BMP180;56766;52.260;20.746;2024-03-08T08:52:32;101134.20;;;6.40
69545;BMP180;56766;52.260;20.746;2024-03-08T08:54:59;101130.40;;;6.60
69545;BMP180;56766;52.260;20.746;2024-03-08T08:57:26;101129.20;;;6.64
69545;BMP180;56766;52.260;20.746;2024-03-08T08:59:54;101124.40;;;6.70
69545;BMP180;56766;52.260;20.746;2024-03-08T09:02:21;101121.00;;;6.90
69545;BMP180;56766;52.260;20.746;2024-03-08T09:04:48;101120.20;;;6.90
69545;BMP180;56766;52.260;20.746;2024-03-08T09:07:15;101115.00;;;7.00
69545;BMP180;56766;52.260;20.746;2024-03-08T09:09:42;101113.00;;;7.18
69545;BMP180;56766;52.260;20.746;2024-03-08T09:12:11;101113.80;;;7.30
69545;BMP180;56766;52.260;20.746;2024-03-08T09:14:43;101113.00;;;7.38
69545;BMP180;56766;52.260;20.746;2024-03-08T09:17:11;101110.20;;;7.40
69545;BMP180;56766;52.260;20.746;2024-03-08T09:19:38;101106.80;;;7.60
69545;BMP180;56766;52.260;20.746;2024-03-08T09:22:07;101108.60;;;7.70
69545;BMP180;56766;52.260;20.746;2024-03-08T09:24:35;101106.40;;;7.80
69545;BMP180;56766;52.260;20.746;2024-03-08T09:27:02;101109.40;;;7.90
69545;BMP180;56766;52.260;20.746;2024-03-08T09:29:29;101106.20;;;7.90
69545;BMP180;56766;52.260;20.746;2024-03-08T09:31:57;101104.00;;;8.00
69545;BMP180;56766;52.260;20.746;2024-03-08T09:34:25;101106.20;;;8.02
69545;BMP180;56766;52.260;20.746;2024-03-08T09:36:52;101099.40;;;8.16
69545;BMP180;56766;52.260;20.746;2024-03-08T09:39:19;101097.80;;;8.28
69545;BMP180;56766;52.260;20.746;2024-03-08T09:41:47;101086.20;;;8.40
69545;BMP180;56766;52.260;20.746;2024-03-08T09:44:17;101087.20;;;8.50
69545;BMP180;56766;52.260;20.746;2024-03-08T09:46:46;101084.60;;;8.56
69545;BMP180;56766;52.260;20.746;2024-03-08T09:49:17;101086.60;;;8.64
69545;BMP180;56766;52.260;20.746;2024-03-08T09:51:45;101086.20;;;8.76
69545;BMP180;56766;52.260;20.746;2024-03-08T09:54:12;101089.40;;;8.80
69545;BMP180;56766;52.260;20.746;2024-03-08T09:56:42;101085.00;;;8.90
69545;BMP180;56766;52.260;20.746;2024-03-08T09:59:11;101081.00;;;8.90
69545;BMP180;56766;52.260;20.746;2024-03-08T10:01:37;101084.20;;;8.90
69545;BMP180;56766;52.260;20.746;2024-03-08T10:04:08;101082.60;;;8.92
69545;BMP180;56766;52.260;20.746;2024-03-08T10:06:36;101077.60;;;9.00
69545;BMP180;56766;52.260;20.746;2024-03-08T10:09:03;101077.40;;;9.00
69545;BMP180;56766;52.260;20.746;2024-03-08T10:11:32;101076.00;;;9.00
69545;BMP180;56766;52.260;20.746;2024-03-08T10:14:00;101072.20;;;9.00
69545;BMP180;56766;52.260;20.746;2024-03-08T10:16:28;101078.60;;;9.10
69545;BMP180;56766;52.260;20.746;2024-03-08T10:18:58;101072.20;;;9.10
69545;BMP180;56766;52.260;20.746;2024-03-08T10:21:24;101068.80;;;9.02
69545;BMP180;56766;52.260;20.746;2024-03-08T10:23:51;101075.40;;;9.10
69545;BMP180;56766;52.260;20.746;2024-03-08T10:26:18;101075.00;;;9.10
69545;BMP180;56766;52.260;20.746;2024-03-08T10:28:49;101072.40;;;9.20
69545;BMP180;56766;52.260;20.746;2024-03-08T10:31:17;101069.60;;;9.20
69545;BMP180;56766;52.260;20.746;2024-03-08T10:33:44;101062.60;;;9.30
69545;BMP180;56766;52.260;20.746;2024-03-08T10:36:13;101059.60;;;9.40
69545;BMP180;56766;52.260;20.746;2024-03-08T10:38:42;101058.80;;;9.42
69545;BMP180;56766;52.260;20.746;2024-03-08T10:41:14;101060.20;;;9.50
69545;BMP180;56766;52.260;20.746;2024-03-08T10:52:36;101048.80;;;9.60
69545;BMP180;56766;52.260;20.746;2024-03-08T10:55:05;101048.00;;;9.60
69545;BMP180;56766;52.260;20.746;2024-03-08T10:57:40;101050.60;;;9.60
69545;BMP180;56766;52.260;20.746;2024-03-08T11:00:09;101050.60;;;9.70
69545;BMP180;56766;52.260;20.746;2024-03-08T11:02:38;101048.20;;;9.80
69545;BMP180;56766;52.260;20.746;2024-03-08T11:05:10;101040.20;;;9.80
69545;BMP180;56766;52.260;20.746;2024-03-08T11:07:42;101042.60;;;9.88
69545;BMP180;56766;52.260;20.746;2024-03-08T11:10:20;101035.20;;;9.80
69545;BMP180;56766;52.260;20.746;2024-03-08T11:12:47;101028.00;;;9.70
69545;BMP180;56766;52.260;20.746;2024-03-08T11:15:14;101029.20;;;9.70
69545;BMP180;56766;52.260;20.746;2024-03-08T11:17:49;101030.60;;;9.80
69545;BMP180;56766;52.260;20.746;2024-03-08T11:20:20;101033.20;;;9.90
69545;BMP180;56766;52.260;20.746;2024-03-08T11:22:53;101025.40;;;9.90
69545;BMP180;56766;52.260;20.746;2024-03-08T11:25:41;101023.40;;;9.90
69545;BMP180;56766;52.260;20.746;2024-03-08T11:28:20;101026.60;;;9.90
69545;BMP180;56766;52.260;20.746;2024-03-08T11:33:34;101020.00;;;10.00
69545;BMP180;56766;52.260;20.746;2024-03-08T11:36:07;101010.80;;;10.00
69545;BMP180;56766;52.260;20.746;2024-03-08T11:38:44;101010.40;;;9.98
69545;BMP180;56766;52.260;20.746;2024-03-08T11:41:18;101005.20;;;10.00
69545;BMP180;56766;52.260;20.746;2024-03-08T11:43:47;101001.00;;;10.00
69545;BMP180;56766;52.260;20.746;2024-03-08T11:46:16;101001.60;;;10.10
69545;BMP180;56766;52.260;20.746;2024-03-08T11:48:47;101000.40;;;10.20
69545;BMP180;56766;52.260;20.746;2024-03-08T11:51:15;100998.80;;;10.30
69545;BMP180;56766;52.260;20.746;2024-03-08T11:53:45;100992.60;;;10.20
69545;BMP180;56766;52.260;20.746;2024-03-08T11:56:14;100996.20;;;10.10
69545;BMP180;56766;52.260;20.746;2024-03-08T11:58:41;100993.60;;;10.10
69545;BMP180;56766;52.260;20.746;2024-03-08T12:01:10;100991.20;;;10.04
69545;BMP180;56766;52.260;20.746;2024-03-08T12:03:40;100988.40;;;10.10
69545;BMP180;56766;52.260;20.746;2024-03-08T12:06:10;100992.60;;;10.16
69545;BMP180;56766;52.260;20.746;2024-03-08T12:08:37;100988.20;;;10.20
69545;BMP180;56766;52.260;20.746;2024-03-08T12:11:04;100984.00;;;10.20
69545;BMP180;56766;52.260;20.746;2024-03-08T12:13:34;100983.40;;;10.22
69545;BMP180;56766;52.260;20.746;2024-03-08T12:16:04;100981.60;;;10.30
69545;BMP180;56766;52.260;20.746;2024-03-08T12:18:39;100979.60;;;10.30
69545;BMP180;56766;52.260;20.746;2024-03-08T12:21:12;100971.00;;;10.30
69545;BMP180;56766;52.260;20.746;2024-03-08T12:23:41;100972.80;;;10.20
69545;BMP180;56766;52.260;20.746;2024-03-08T12:26:14;100968.60;;;10.20
69545;BMP180;56766;52.260;20.746;2024-03-08T12:28:44;100970.20;;;10.20
69545;BMP180;56766;52.260;20.746;2024-03-08T12:31:12;100963.40;;;10.20
69545;BMP180;56766;52.260;20.746;2024-03-08T12:33:54;100966.80;;;10.20
69545;BMP180;56766;52.260;20.746;2024-03-08T12:36:22;100964.40;;;10.20
69545;BMP180;56766;52.260;20.746;2024-03-08T12:38:49;100965.20;;;10.24
69545;BMP180;56766;52.260;20.746;2024-03-08T12:41:19;100960.00;;;10.20
69545;BMP180;56766;52.260;20.746;2024-03-08T12:43:47;100948.20;;;10.20
69545;BMP180;56766;52.260;20.746;2024-03-08T12:46:16;100947.80;;;10.00
69545;BMP180;56766;52.260;20.746;2024-03-08T12:48:43;100940.80;;;9.94
69545;BMP180;56766;52.260;20.746;2024-03-08T12:51:15;100940.20;;;9.82
69545;BMP180;56766;52.260;20.746;2024-03-08T12:53:42;100934.60;;;9.84
69545;BMP180;56766;52.260;20.746;2024-03-08T12:56:32;100931.20;;;9.90
69545;BMP180;56766;52.260;20.746;2024-03-08T12:59:01;100936.40;;;9.90
69545;BMP180;56766;52.260;20.746;2024-03-08T13:01:29;100937.00;;;9.90
69545;BMP180;56766;52.260;20.746;2024-03-08T13:03:58;100929.40;;;9.90
69545;BMP180;56766;52.260;20.746;2024-03-08T13:06:25;100921.40;;;9.90
69545;BMP180;56766;52.260;20.746;2024-03-08T13:08:52;100918.80;;;9.90
69545;BMP180;56766;52.260;20.746;2024-03-08T13:11:21;100921.60;;;9.80
69545;BMP180;56766;52.260;20.746;2024-03-08T13:13:52;100918.00;;;9.76
69545;BMP180;56766;52.260;20.746;2024-03-08T13:16:20;100917.20;;;9.80
69545;BMP180;56766;52.260;20.746;2024-03-08T13:18:47;100914.00;;;9.70
69545;BMP180;56766;52.260;20.746;2024-03-08T13:21:15;100911.40;;;9.70
69545;BMP180;56766;52.260;20.746;2024-03-08T13:23:46;100901.20;;;9.64
69545;BMP180;56766;52.260;20.746;2024-03-08T13:26:16;100902.80;;;9.60
69545;BMP180;56766;52.260;20.746;2024-03-08T13:28:45;100898.60;;;9.60
69545;BMP180;56766;52.260;20.746;2024-03-08T13:31:12;100901.00;;;9.58
69545;BMP180;56766;52.260;20.746;2024-03-08T13:33:41;100895.80;;;9.52
69545;BMP180;56766;52.260;20.746;2024-03-08T13:36:13;100892.00;;;9.50
69545;BMP180;56766;52.260;20.746;2024-03-08T13:38:45;100889.40;;;9.50
69545;BMP180;56766;52.260;20.746;2024-03-08T13:41:14;100892.00;;;9.50
69545;BMP180;56766;52.260;20.746;2024-03-08T13:43:47;100895.00;;;9.50
69545;BMP180;56766;52.260;20.746;2024-03-08T13:46:17;100883.40;;;9.40
69545;BMP180;56766;52.260;20.746;2024-03-08T13:48:44;100883.40;;;9.40
69545;BMP180;56766;52.260;20.746;2024-03-08T13:51:10;100883.40;;;9.30
69545;BMP180;56766;52.260;20.746;2024-03-08T13:53:39;100876.00;;;9.30
69545;BMP180;56766;52.260;20.746;2024-03-08T13:56:07;100872.60;;;9.22
69545;BMP180;56766;52.260;20.746;2024-03-08T13:58:37;100870.60;;;9.20
69545;BMP180;56766;52.260;20.746;2024-03-08T14:01:06;100876.80;;;9.20
69545;BMP180;56766;52.260;20.746;2024-03-08T14:03:38;100867.80;;;9.10
69545;BMP180;56766;52.260;20.746;2024-03-08T14:06:09;100875.80;;;9.10
69545;BMP180;56766;52.260;20.746;2024-03-08T14:08:37;100873.20;;;9.00